createdAt,value
2023-03-18T00:01:01.626Z,6.32
2023-03-18T00:03:28.788Z,4.63
2023-03-18T00:06:07.358Z,5.50
2023-03-18T00:08:34.822Z,5.90
2023-03-18T00:11:02.334Z,5.30
2023-03-18T00:13:29.424Z,4.65
2023-03-18T00:15:56.661Z,7.68
2023-03-18T00:18:23.679Z,5.40
2023-03-18T00:20:50.715Z,3.90
2023-03-18T00:23:18.288Z,5.15
2023-03-18T00:25:48.715Z,4.75
2023-03-18T00:28:18.436Z,4.28
2023-03-18T00:30:46.509Z,4.10
2023-03-18T00:33:14.111Z,4.22
2023-03-18T00:35:41.289Z,5.85
2023-03-18T00:38:10.208Z,4.72
2023-03-18T00:40:43.513Z,3.72
2023-03-18T00:43:12.875Z,9.30
2023-03-18T00:45:41.558Z,4.75
2023-03-18T00:48:09.057Z,3.47
2023-03-18T00:50:37.169Z,3.55
2023-03-18T00:53:04.290Z,4.00
2023-03-18T00:55:31.602Z,5.18
2023-03-18T00:57:59.038Z,14.48
2023-03-18T01:00:26.368Z,4.07
2023-03-18T01:02:53.983Z,3.20
2023-03-18T01:05:22.188Z,5.13
2023-03-18T01:07:49.676Z,5.90
2023-03-18T01:10:17.074Z,5.22
2023-03-18T01:12:47.285Z,2.55
2023-03-18T01:15:17.825Z,3.70
2023-03-18T01:17:46.615Z,4.72
2023-03-18T01:20:17.270Z,2.92
2023-03-18T01:22:47.341Z,4.00
2023-03-18T01:25:16.497Z,5.82
2023-03-18T01:27:47.756Z,3.28
2023-03-18T01:30:15.172Z,4.95
2023-03-18T01:32:44.017Z,4.38
2023-03-18T01:35:12.538Z,5.15
2023-03-18T01:37:46.895Z,3.38
2023-03-18T01:40:16.283Z,6.95
2023-03-18T01:42:49.785Z,3.83
2023-03-18T01:45:24.385Z,3.85
2023-03-18T01:47:56.136Z,9.55
2023-03-18T01:50:27.412Z,4.13
2023-03-18T01:52:59.461Z,5.00
2023-03-18T01:55:30.726Z,6.78
2023-03-18T01:57:59.889Z,6.25
2023-03-18T02:00:28.659Z,5.57
2023-03-18T02:02:55.962Z,4.90
2023-03-18T02:07:52.899Z,4.50
2023-03-18T02:10:24.699Z,5.38
2023-03-18T02:12:58.480Z,7.80
2023-03-18T02:15:31.990Z,7.68
2023-03-18T02:18:09.933Z,7.32
2023-03-18T02:20:42.978Z,4.32
2023-03-18T02:23:33.666Z,4.85
2023-03-18T02:26:23.161Z,5.18
2023-03-18T02:28:52.604Z,8.27
2023-03-18T02:31:20.339Z,5.60
2023-03-18T02:33:48.025Z,5.38
2023-03-18T02:36:20.424Z,4.50
2023-03-18T02:38:47.994Z,4.55
2023-03-18T02:41:25.386Z,6.30
2023-03-18T02:43:53.273Z,5.60
2023-03-18T02:46:38.468Z,5.70
2023-03-18T02:50:15.147Z,4.82
2023-03-18T02:52:42.882Z,3.47
2023-03-18T02:55:10.010Z,7.90
2023-03-18T02:57:37.381Z,7.05
2023-03-18T03:00:05.916Z,4.43
2023-03-18T03:02:33.390Z,4.72
2023-03-18T03:05:00.491Z,5.55
2023-03-18T03:07:28.112Z,12.38
2023-03-18T03:09:57.455Z,4.28
2023-03-18T03:12:24.997Z,4.63
2023-03-18T03:14:56.747Z,4.45
2023-03-18T03:17:27.225Z,4.65
2023-03-18T03:19:54.917Z,3.80
2023-03-18T03:23:31.134Z,5.75
2023-03-18T03:25:58.258Z,3.80
2023-03-18T03:28:27.270Z,9.30
2023-03-18T03:30:55.988Z,5.28
2023-03-18T03:33:23.577Z,9.15
2023-03-18T03:35:51.820Z,4.90
2023-03-18T03:38:18.967Z,7.32
2023-03-18T03:40:47.993Z,6.05
2023-03-18T03:43:15.791Z,6.47
2023-03-18T03:45:46.837Z,4.65
2023-03-18T03:48:14.624Z,4.82
2023-03-18T03:50:42.043Z,5.82
2023-03-18T03:53:10.511Z,8.85
2023-03-18T03:55:38.022Z,8.55
2023-03-18T03:58:05.314Z,3.72
2023-03-18T04:00:33.672Z,5.53
2023-03-18T04:03:01.296Z,7.63
2023-03-18T04:05:29.696Z,4.57
2023-03-18T04:08:00.301Z,13.75
2023-03-18T04:10:36.904Z,7.82
2023-03-18T04:13:06.182Z,5.70
2023-03-18T04:15:34.430Z,3.30
2023-03-18T04:18:19.861Z,6.57
2023-03-18T04:20:48.054Z,12.98
2023-03-18T04:23:26.896Z,4.80
2023-03-18T04:25:54.030Z,4.60
2023-03-18T04:28:21.455Z,4.72
2023-03-18T04:30:50.072Z,4.07
2023-03-18T04:33:19.548Z,5.03
2023-03-18T04:35:48.773Z,10.95
2023-03-18T04:38:18.125Z,5.03
2023-03-18T04:40:46.012Z,5.65
2023-03-18T04:43:13.164Z,4.22
2023-03-18T04:45:40.211Z,5.03
2023-03-18T04:48:22.614Z,4.63
2023-03-18T04:50:49.967Z,6.40
2023-03-18T04:53:23.286Z,6.43
2023-03-18T04:55:51.757Z,4.50
2023-03-18T04:58:23.476Z,3.35
2023-03-18T05:01:02.312Z,4.30
2023-03-18T05:03:35.052Z,5.25
2023-03-18T05:06:03.013Z,8.25
2023-03-18T05:08:40.591Z,5.45
2023-03-18T05:11:07.705Z,5.60
2023-03-18T05:13:36.447Z,8.00
2023-03-18T05:16:05.028Z,7.72
2023-03-18T05:18:33.823Z,7.57
2023-03-18T05:21:04.121Z,7.57
2023-03-18T05:23:32.660Z,6.05
2023-03-18T05:26:00.260Z,11.13
2023-03-18T05:28:29.292Z,5.90
2023-03-18T05:31:14.802Z,5.03
2023-03-18T05:33:42.637Z,7.43
2023-03-18T05:36:12.099Z,8.73
2023-03-18T05:38:49.782Z,4.20
2023-03-18T05:41:17.454Z,6.32
2023-03-18T05:43:44.747Z,6.63
2023-03-18T05:46:12.944Z,6.03
2023-03-18T05:49:04.117Z,4.50
2023-03-18T05:51:41.095Z,9.05
2023-03-18T05:54:11.893Z,8.00
2023-03-18T05:56:43.652Z,5.05
2023-03-18T05:59:11.830Z,6.90
2023-03-18T06:01:46.347Z,4.40
2023-03-18T06:04:13.329Z,8.00
2023-03-18T06:06:41.312Z,8.38
2023-03-18T06:09:10.920Z,6.15
2023-03-18T06:11:39.061Z,9.43
2023-03-18T06:14:07.820Z,6.32
2023-03-18T06:16:36.030Z,7.25
2023-03-18T06:19:12.068Z,6.18
2023-03-18T06:21:40.235Z,6.78
2023-03-18T06:24:08.659Z,6.82
2023-03-18T06:26:36.873Z,5.13
2023-03-18T06:29:05.586Z,6.07
2023-03-18T06:31:32.962Z,6.00
2023-03-18T06:34:01.533Z,5.30
2023-03-18T06:36:33.629Z,5.65
2023-03-18T06:39:02.597Z,14.77
2023-03-18T06:41:30.775Z,5.60
2023-03-18T06:44:20.196Z,6.38
2023-03-18T06:46:47.583Z,7.18
2023-03-18T06:49:17.678Z,7.10
2023-03-18T06:51:51.154Z,5.35
2023-03-18T06:54:18.669Z,7.55
2023-03-18T06:56:46.807Z,6.13
2023-03-18T06:59:19.315Z,4.70
2023-03-18T07:01:46.869Z,11.38
2023-03-18T07:04:16.507Z,6.60
2023-03-18T07:06:43.661Z,8.55
2023-03-18T07:09:12.721Z,9.65
2023-03-18T07:11:40.859Z,7.57
2023-03-18T07:14:14.692Z,9.30
2023-03-18T07:16:43.483Z,9.90
2023-03-18T07:19:11.708Z,9.70
2023-03-18T07:21:40.758Z,5.57
2023-03-18T07:24:07.817Z,9.00
2023-03-18T07:26:35.101Z,8.75
2023-03-18T07:29:02.279Z,10.65
2023-03-18T07:31:30.570Z,10.50
2023-03-18T07:33:57.662Z,8.45
2023-03-18T07:36:25.351Z,6.05
2023-03-18T07:38:52.692Z,6.80
2023-03-18T07:41:19.752Z,10.13
2023-03-18T07:43:46.749Z,7.72
2023-03-18T07:46:14.332Z,7.53
2023-03-18T07:48:41.895Z,9.60
2023-03-18T07:51:08.905Z,11.43
2023-03-18T07:53:36.302Z,10.70
2023-03-18T07:56:03.586Z,20.60
2023-03-18T07:58:30.635Z,8.77
2023-03-18T08:00:57.855Z,10.95
2023-03-18T08:03:24.851Z,14.40
2023-03-18T08:05:51.978Z,11.85
2023-03-18T08:08:18.967Z,10.65
2023-03-18T08:10:52.529Z,7.95
2023-03-18T08:13:20.562Z,11.20
2023-03-18T08:15:48.385Z,12.90
2023-03-18T08:18:15.397Z,11.98
2023-03-18T08:20:42.487Z,8.45
2023-03-18T08:23:09.668Z,11.77
2023-03-18T08:25:36.968Z,13.90
2023-03-18T08:28:07.343Z,11.57
2023-03-18T08:30:35.469Z,15.63
2023-03-18T08:33:03.000Z,6.93
2023-03-18T08:35:31.084Z,9.98
2023-03-18T08:37:58.364Z,9.55
2023-03-18T08:40:26.344Z,11.85
2023-03-18T08:42:54.087Z,9.13
2023-03-18T08:45:21.352Z,11.43
2023-03-18T08:47:48.621Z,9.02
2023-03-18T08:50:15.875Z,12.02
2023-03-18T08:52:42.832Z,9.15
2023-03-18T08:55:10.131Z,9.85
2023-03-18T08:57:38.023Z,10.65
2023-03-18T09:00:06.135Z,8.70
2023-03-18T09:02:33.890Z,11.75
2023-03-18T09:05:01.001Z,10.02
2023-03-18T09:07:28.764Z,8.82
2023-03-18T09:09:55.809Z,7.82
2023-03-18T09:12:23.326Z,8.32
2023-03-18T09:14:50.651Z,11.30
2023-03-18T09:17:17.690Z,7.97
2023-03-18T09:19:44.721Z,7.78
2023-03-18T09:22:11.889Z,13.68
2023-03-18T09:24:39.550Z,7.32
2023-03-18T09:27:06.627Z,8.38
2023-03-18T09:29:33.703Z,8.60
2023-03-18T09:32:00.760Z,8.77
2023-03-18T09:34:27.855Z,8.45
2023-03-18T09:36:54.948Z,9.90
2023-03-18T09:39:22.785Z,10.23
2023-03-18T09:42:07.942Z,10.65
2023-03-18T10:17:24.485Z,9.73
2023-03-18T10:19:58.630Z,8.40
2023-03-18T10:23:14.838Z,11.93
2023-03-18T10:25:53.780Z,9.52
2023-03-18T10:28:30.138Z,8.32
2023-03-18T10:31:11.178Z,8.98
2023-03-18T10:34:01.474Z,9.73
2023-03-18T10:36:39.981Z,11.07
2023-03-18T10:39:21.083Z,9.00
2023-03-18T10:41:50.309Z,9.70
2023-03-18T10:44:26.932Z,7.80
2023-03-18T10:49:38.877Z,10.02
2023-03-18T10:52:18.743Z,8.20
2023-03-18T10:54:53.072Z,7.97
2023-03-18T10:57:22.154Z,6.95
2023-03-18T10:59:52.423Z,11.00
2023-03-18T11:02:35.116Z,8.07
2023-03-18T11:05:24.739Z,8.55
2023-03-18T11:08:29.599Z,6.47
2023-03-18T11:10:57.574Z,6.03
2023-03-18T11:13:27.216Z,12.23
2023-03-18T11:15:59.375Z,8.77
2023-03-18T11:18:27.642Z,11.95
2023-03-18T11:21:00.973Z,12.18
2023-03-18T11:23:46.316Z,9.75
2023-03-18T11:26:30.039Z,7.38
2023-03-18T11:28:59.202Z,7.15
2023-03-18T11:31:28.094Z,7.20
2023-03-18T11:33:59.264Z,8.68
2023-03-18T11:36:28.170Z,7.82
2023-03-18T11:39:02.931Z,9.63
2023-03-18T11:41:32.898Z,9.98
2023-03-18T11:44:01.632Z,11.55
2023-03-18T11:47:01.220Z,8.13
2023-03-18T11:49:29.655Z,7.43
2023-03-18T11:52:11.997Z,6.32
2023-03-18T11:55:27.301Z,6.72
2023-03-18T11:58:18.725Z,11.35
2023-03-18T12:01:09.064Z,7.20
2023-03-18T12:04:01.144Z,6.03
2023-03-18T12:06:30.882Z,7.10
2023-03-18T12:09:17.098Z,6.10
2023-03-18T12:11:53.533Z,7.50
2023-03-18T12:14:41.052Z,7.25
2023-03-18T12:17:25.774Z,6.80
2023-03-18T12:19:52.783Z,7.30
2023-03-18T12:22:35.981Z,8.65
2023-03-18T12:25:10.542Z,6.85
2023-03-18T12:27:53.669Z,9.65
2023-03-18T12:30:46.081Z,9.32
2023-03-18T12:33:19.169Z,9.32
2023-03-18T12:36:20.717Z,6.72
2023-03-18T12:38:56.866Z,6.63
2023-03-18T12:41:27.813Z,9.20
2023-03-18T12:44:27.846Z,6.65
2023-03-18T12:47:15.510Z,7.13
2023-03-18T12:49:49.592Z,7.30
2023-03-18T12:52:43.637Z,6.93
2023-03-18T12:55:43.066Z,10.00
2023-03-18T12:58:23.267Z,9.75
2023-03-18T13:01:18.242Z,9.73
2023-03-18T13:04:07.793Z,13.82
2023-03-18T13:06:50.285Z,7.95
2023-03-18T13:09:44.905Z,9.60
2023-03-18T13:12:18.056Z,9.60
2023-03-18T13:14:59.925Z,8.80
2023-03-18T13:17:33.224Z,13.32
2023-03-18T13:20:02.360Z,11.57
2023-03-18T13:22:42.406Z,12.70
2023-03-18T13:25:32.028Z,13.32
2023-03-18T13:28:33.162Z,9.52
2023-03-18T13:31:13.149Z,13.18
2023-03-18T13:34:31.787Z,11.55
2023-03-18T13:37:37.841Z,10.32
2023-03-18T13:40:34.325Z,12.27
2023-03-18T13:43:02.631Z,13.02
2023-03-18T13:45:37.903Z,10.35
2023-03-18T13:48:16.587Z,11.65
2023-03-18T13:50:48.744Z,12.85
2023-03-18T13:53:26.754Z,11.80
2023-03-18T13:55:56.348Z,15.40
2023-03-18T13:58:35.002Z,11.93
2023-03-18T14:01:29.460Z,11.48
2023-03-18T14:05:05.414Z,12.02
2023-03-18T14:07:33.186Z,13.10
2023-03-18T14:10:15.296Z,12.73
2023-03-18T14:12:48.195Z,12.43
2023-03-18T14:15:15.823Z,12.60
2023-03-18T14:17:48.833Z,10.55
2023-03-18T14:20:19.157Z,9.50
2023-03-18T14:23:07.841Z,10.48
2023-03-18T14:25:41.644Z,9.93
2023-03-18T14:28:09.487Z,12.30
2023-03-18T14:30:37.248Z,11.27
2023-03-18T14:33:29.874Z,10.15
2023-03-18T14:36:10.122Z,11.63
2023-03-18T14:39:14.241Z,10.95
2023-03-18T14:41:47.308Z,10.02
2023-03-18T14:44:39.027Z,11.25
2023-03-18T14:47:38.933Z,11.10
2023-03-18T14:50:16.737Z,10.90
2023-03-18T14:52:52.371Z,12.35
2023-03-18T14:55:28.048Z,13.02
2023-03-18T14:57:55.072Z,10.50
2023-03-18T15:00:24.366Z,13.55
2023-03-18T15:03:01.862Z,13.57
2023-03-18T15:05:35.221Z,11.38
2023-03-18T15:08:07.299Z,15.40
2023-03-18T15:10:34.310Z,14.15
2023-03-18T15:13:12.727Z,13.43
2023-03-18T15:15:41.580Z,13.48
2023-03-18T15:18:29.547Z,13.88
2023-03-18T15:21:19.834Z,14.93
2023-03-18T15:23:51.261Z,11.60
2023-03-18T15:26:29.077Z,13.93
2023-03-18T15:28:58.865Z,15.80
2023-03-18T15:31:38.729Z,14.20
2023-03-18T15:34:15.767Z,15.15
2023-03-18T15:36:55.644Z,14.02
2023-03-18T15:39:37.482Z,14.85
2023-03-18T15:42:16.108Z,15.57
2023-03-18T15:44:46.319Z,11.52
2023-03-18T15:47:20.084Z,13.35
2023-03-18T15:50:09.793Z,12.43
2023-03-18T15:52:41.989Z,13.27
2023-03-18T15:55:31.241Z,14.30
2023-03-18T15:57:58.709Z,12.32
2023-03-18T16:00:26.010Z,9.93
2023-03-18T16:02:53.875Z,9.18
2023-03-18T16:05:26.827Z,12.85
2023-03-18T16:07:54.679Z,11.23
2023-03-18T16:10:23.999Z,12.77
2023-03-18T16:12:55.149Z,18.45
2023-03-18T16:15:24.174Z,15.70
2023-03-18T16:17:53.596Z,12.38
2023-03-18T16:20:26.211Z,14.07
2023-03-18T16:22:53.725Z,17.58
2023-03-18T16:25:20.862Z,20.75
2023-03-18T16:27:51.101Z,19.45
2023-03-18T16:30:18.232Z,17.88
2023-03-18T16:32:46.721Z,16.30
2023-03-18T16:35:16.080Z,16.77
2023-03-18T16:37:44.437Z,14.05
2023-03-18T16:40:20.540Z,15.98
2023-03-18T16:42:48.202Z,13.00
2023-03-18T16:45:17.943Z,14.60
2023-03-18T16:47:50.148Z,14.90
2023-03-18T16:50:23.243Z,14.30
2023-03-18T16:52:51.123Z,15.43
2023-03-18T16:55:19.540Z,12.07
2023-03-18T16:58:08.534Z,16.05
2023-03-18T17:00:35.683Z,13.02
2023-03-18T17:03:02.738Z,12.05
2023-03-18T17:05:29.939Z,14.43
2023-03-18T17:07:57.072Z,15.18
2023-03-18T17:10:27.212Z,15.98
2023-03-18T17:12:59.748Z,13.65
2023-03-18T17:15:32.099Z,13.57
2023-03-18T17:17:59.906Z,12.65
2023-03-18T17:20:29.392Z,14.23
2023-03-18T17:22:56.403Z,15.57
2023-03-18T17:25:27.256Z,10.95
2023-03-18T17:27:59.836Z,11.60
2023-03-18T17:30:38.116Z,13.13
2023-03-18T17:33:27.345Z,11.63
2023-03-18T17:35:55.182Z,10.45
2023-03-18T17:38:22.363Z,10.85
2023-03-18T17:40:50.790Z,12.43
2023-03-18T17:43:22.693Z,11.50
2023-03-18T17:45:50.845Z,9.77
2023-03-18T17:48:26.268Z,9.30
2023-03-18T17:50:58.142Z,10.00
2023-03-18T17:53:33.602Z,10.50
2023-03-18T17:56:03.279Z,12.35
2023-03-18T17:58:32.374Z,11.25
2023-03-18T18:01:06.718Z,11.13
2023-03-18T18:03:36.306Z,11.75
2023-03-18T18:06:03.869Z,12.50
2023-03-18T18:08:31.811Z,11.73
2023-03-18T18:11:10.393Z,15.75
2023-03-18T18:13:37.392Z,14.95
2023-03-18T18:16:04.613Z,12.73
2023-03-18T18:18:32.964Z,17.98
2023-03-18T18:21:02.888Z,15.30
2023-03-18T18:23:35.732Z,16.00
2023-03-18T18:26:09.118Z,15.75
2023-03-18T18:28:38.706Z,18.45
2023-03-18T18:31:09.388Z,17.40
2023-03-18T18:33:38.263Z,16.85
2023-03-18T18:36:07.081Z,19.55
2023-03-18T18:38:34.221Z,18.15
2023-03-18T18:41:01.961Z,22.67
2023-03-18T18:43:29.227Z,17.33
2023-03-18T18:45:57.829Z,18.80
2023-03-18T18:48:24.806Z,18.92
2023-03-18T18:50:52.516Z,19.30
2023-03-18T18:53:28.332Z,17.27
2023-03-18T18:56:01.380Z,21.10
2023-03-18T18:58:33.027Z,17.95
2023-03-18T19:01:00.553Z,20.10
2023-03-18T19:03:31.414Z,21.77
2023-03-18T19:06:01.120Z,18.45
2023-03-18T19:08:31.955Z,18.45
2023-03-18T19:11:04.369Z,22.15
2023-03-18T19:13:34.375Z,23.42
2023-03-18T19:16:05.183Z,21.75
2023-03-18T19:18:38.910Z,24.48
2023-03-18T19:21:07.005Z,28.73
2023-03-18T19:23:35.454Z,20.98
2023-03-18T19:26:04.557Z,23.25
2023-03-18T19:28:58.587Z,27.80
2023-03-18T19:31:30.924Z,25.88
2023-03-18T19:34:00.368Z,24.08
2023-03-18T19:36:49.063Z,24.88
2023-03-18T19:39:18.933Z,24.48
2023-03-18T19:41:51.242Z,23.75
2023-03-18T19:44:21.729Z,28.90
2023-03-18T19:46:52.121Z,24.38
2023-03-18T19:49:26.599Z,26.50
2023-03-18T19:51:54.906Z,22.98
2023-03-18T19:54:29.344Z,25.42
2023-03-18T19:57:00.722Z,25.05
2023-03-18T19:59:37.445Z,30.92
2023-03-18T20:02:27.570Z,29.20
2023-03-18T20:05:00.297Z,25.05
2023-03-18T20:07:30.056Z,27.58
2023-03-18T20:09:57.382Z,22.85
2023-03-18T20:12:24.414Z,29.58
2023-03-18T20:14:51.974Z,22.85
2023-03-18T20:17:24.803Z,27.38
2023-03-18T20:19:52.158Z,25.27
2023-03-18T20:22:33.790Z,26.55
2023-03-18T20:25:02.256Z,27.35
2023-03-18T20:27:30.410Z,27.98
2023-03-18T20:29:58.627Z,23.15
2023-03-18T20:32:26.460Z,37.47
2023-03-18T20:34:53.725Z,27.50
2023-03-18T20:37:34.871Z,33.17
2023-03-18T20:40:10.908Z,27.15
2023-03-18T20:42:37.944Z,43.17
2023-03-18T20:45:15.130Z,30.35
2023-03-18T20:47:44.052Z,35.13
2023-03-18T20:50:17.062Z,34.72
2023-03-18T20:52:45.608Z,28.63
2023-03-18T20:55:35.566Z,35.58
2023-03-18T20:58:04.141Z,47.35
2023-03-18T21:00:33.334Z,47.78
2023-03-18T21:03:02.501Z,31.65
2023-03-18T21:05:29.520Z,33.47
2023-03-18T21:07:56.766Z,29.48
2023-03-18T21:10:26.473Z,35.22
2023-03-18T21:12:53.597Z,33.10
2023-03-18T21:15:22.537Z,31.20
2023-03-18T21:17:50.073Z,29.13
2023-03-18T21:20:22.392Z,33.50
2023-03-18T21:22:50.979Z,33.35
2023-03-18T21:25:23.470Z,38.58
2023-03-18T21:27:51.699Z,30.25
2023-03-18T21:30:22.673Z,40.60
2023-03-18T21:32:51.134Z,27.42
2023-03-18T21:35:23.192Z,25.85
2023-03-18T21:37:51.010Z,38.40
2023-03-18T21:40:21.851Z,32.88
2023-03-18T21:42:51.891Z,34.08
2023-03-18T21:45:23.829Z,34.22
2023-03-18T21:47:52.728Z,32.95
2023-03-18T21:50:25.279Z,30.48
2023-03-18T21:52:53.751Z,30.98
2023-03-18T21:55:21.742Z,39.60
2023-03-18T21:57:49.580Z,35.03
2023-03-18T22:00:21.196Z,37.63
2023-03-18T22:02:49.036Z,29.85
2023-03-18T22:05:22.188Z,40.08
2023-03-18T22:07:51.039Z,33.67
2023-03-18T22:10:23.773Z,35.03
2023-03-18T22:12:51.216Z,36.25
2023-03-18T22:15:23.946Z,35.03
2023-03-18T22:17:52.007Z,46.22
2023-03-18T22:20:19.250Z,44.97
2023-03-18T22:22:47.662Z,43.92
2023-03-18T22:25:28.683Z,41.13
2023-03-18T22:27:57.046Z,33.72
2023-03-18T22:30:25.876Z,39.72
2023-03-18T22:32:53.731Z,41.58
2023-03-18T22:35:23.896Z,33.97
2023-03-18T22:37:51.377Z,47.20
2023-03-18T22:40:23.949Z,39.20
2023-03-18T22:42:53.917Z,40.20
2023-03-18T22:45:28.021Z,37.83
2023-03-18T22:48:01.305Z,48.95
2023-03-18T22:50:31.471Z,44.05
2023-03-18T22:53:02.355Z,37.85
2023-03-18T22:55:33.858Z,37.17
2023-03-18T22:58:01.445Z,40.13
2023-03-18T23:00:46.538Z,33.95
2023-03-18T23:03:21.355Z,42.75
2023-03-18T23:05:51.880Z,39.22
2023-03-18T23:08:20.759Z,42.85
2023-03-18T23:10:50.082Z,42.45
2023-03-18T23:13:30.261Z,46.53
2023-03-18T23:15:58.531Z,40.47
2023-03-18T23:18:25.818Z,44.95
2023-03-18T23:20:58.281Z,43.35
2023-03-18T23:23:25.738Z,44.05
2023-03-18T23:25:52.796Z,46.03
2023-03-18T23:28:19.937Z,48.97
2023-03-18T23:30:49.217Z,47.45
2023-03-18T23:33:16.949Z,57.03
2023-03-18T23:35:45.080Z,46.42
2023-03-18T23:38:12.208Z,51.67
2023-03-18T23:40:39.402Z,51.55
2023-03-18T23:43:08.069Z,58.22
2023-03-18T23:45:37.082Z,55.15
2023-03-18T23:48:04.815Z,53.88
2023-03-18T23:50:31.952Z,56.63
2023-03-18T23:52:59.434Z,55.60
2023-03-18T23:55:34.541Z,48.88
2023-03-18T23:58:03.450Z,56.30
